Time;durP1;ratioP1;P1;durP2;ratioP2;P2;SDS_P1;SDS_P2;PMS_P1;PMS_P2;Temp;Humidity;BMP_temperature;BMP_pressure;BME280_temperature;BME280_humidity;BME280_pressure;Samples;Min_cycle;Max_cycle;Signal;HPM_P1;HPM_P2
2021/10/09 00:00:27;;;;;;;;;;;;;;;-142.75;100.00;78710.59;5095517;28;19916;-81
2021/10/09 00:02:52;;;;;;;;;;;;;;;-142.75;100.00;78716.50;5076304;28;19916;-81
2021/10/09 00:05:17;;;;;;;;;;;;;;;-142.75;100.00;78720.44;5076243;28;19927;-81
2021/10/09 00:07:43;;;;;;;;;;;;;;;-142.75;100.00;78728.31;5094938;28;19935;-79
2021/10/09 00:10:08;;;;;;;;;;;;;;;-142.75;100.00;78726.34;5076946;28;19916;-79
2021/10/09 00:12:34;;;;;;;;;;;;;;;-142.75;100.00;78704.69;5095529;28;19923;-79
2021/10/09 00:14:59;;;;;;;;;;;;;;;-142.75;100.00;78712.56;5095371;28;19916;-80
2021/10/09 00:17:25;;;;;;;;;;;;;;;-142.75;100.00;78716.50;5077281;28;19916;-80
2021/10/09 00:19:51;;;;;;;;;;;;;;;-142.75;100.00;78708.63;5091209;28;20395;-80
2021/10/09 00:22:16;;;;;;;;;;;;;;;-142.75;100.00;78722.41;5097050;28;19969;-80
2021/10/09 00:24:42;;;;;;;;;;;;;;;-142.75;100.00;78730.28;5093178;28;20366;-79
2021/10/09 00:27:07;;;;;;;;;;;;;;;-142.75;100.00;78746.03;5095384;28;20373;-80
2021/10/09 00:29:32;;;;;;;;;;;;;;;-142.75;100.00;78757.88;5095074;28;19925;-80
2021/10/09 00:31:57;;;;;;;;;;;;;;;-142.75;100.00;78759.84;5107846;28;19923;-80
2021/10/09 00:34:22;;;;;;;;;;;;;;;-142.75;100.00;78763.78;5078068;28;19984;-80
2021/10/09 00:36:48;;;;;;;;;;;;;;;-142.75;100.00;78767.72;5095011;28;20347;-81
2021/10/09 00:39:13;;;;;;;;;;;;;;;-142.75;100.00;78775.59;5077696;28;20006;-81
2021/10/09 00:41:38;;;;;;;;;;;;;;;-142.75;100.00;78777.56;5077423;28;19990;-80
2021/10/09 00:44:07;;;;;;;;;;;;;;;-142.75;100.00;78773.63;5076239;28;19977;-79
2021/10/09 00:46:32;;;;;;;;;;;;;;;-142.75;100.00;78767.72;5094207;28;19916;-78
2021/10/09 00:48:58;;;;;;;;;;;;;;;-142.75;100.00;78771.66;5076370;28;20300;-79
2021/10/09 00:51:23;;;;;;;;;;;;;;;-142.75;100.00;78775.59;5093870;28;19916;-79
2021/10/09 00:53:48;;;;;;;;;;;;;;;-142.75;100.00;78771.66;5076071;28;19951;-79
2021/10/09 00:56:16;;;;;;;;;;;;;;;-142.75;100.00;78783.47;5075779;28;19920;-79
2021/10/09 00:58:42;;;;;;;;;;;;;;;-142.75;100.00;78783.47;5094423;28;20030;-79
2021/10/09 01:01:08;;;;;;;;;;;;;;;-142.75;100.00;78783.47;5093822;28;19916;-79
2021/10/09 01:03:33;;;;;;;;;;;;;;;-142.75;100.00;78787.41;5093805;28;19927;-79
2021/10/09 01:05:59;;;;;;;;;;;;;;;-142.75;100.00;78789.38;5091541;28;20002;-79
2021/10/09 01:08:24;;;;;;;;;;;;;;;-142.75;100.00;78795.28;5093563;28;19927;-79
2021/10/09 01:10:49;;;;;;;;;;;;;;;-142.75;100.00;78795.28;5073957;28;20452;-79
2021/10/09 01:13:14;;;;;;;;;;;;;;;-142.75;100.00;78797.25;5092036;28;19916;-79
2021/10/09 01:15:40;;;;;;;;;;;;;;;-142.75;100.00;78795.28;5073178;28;19916;-78
2021/10/09 01:18:09;;;;;;;;;;;;;;;-142.75;100.00;78783.47;5075310;28;19920;-79
2021/10/09 01:20:47;;;;;;;;;;;;;;;-142.75;100.00;78783.47;5075667;28;19916;-79
2021/10/09 01:23:12;;;;;;;;;;;;;;;-142.75;100.00;78783.47;5075099;28;20384;-79
2021/10/09 01:25:37;;;;;;;;;;;;;;;-142.75;100.00;78779.53;5092968;28;19916;-79
2021/10/09 01:28:02;;;;;;;;;;;;;;;-142.75;100.00;78783.47;5093659;28;19948;-78
2021/10/09 01:30:27;;;;;;;;;;;;;;;-142.75;100.00;78783.47;5078369;28;20369;-79
2021/10/09 01:32:53;;;;;;;;;;;;;;;-142.75;100.00;78789.38;5079593;28;19916;-79
2021/10/09 01:35:18;;;;;;;;;;;;;;;-142.75;100.00;78791.34;5074706;28;19964;-78
2021/10/09 01:37:43;;;;;;;;;;;;;;;-142.75;100.00;78787.41;5093113;28;20384;-79
2021/10/09 01:40:08;;;;;;;;;;;;;;;-142.75;100.00;78799.22;5092681;28;20019;-79
2021/10/09 01:42:35;;;;;;;;;;;;;;;-142.75;100.00;78803.16;5094335;28;19924;-79
2021/10/09 01:45:00;;;;;;;;;;;;;;;-142.75;100.00;78814.97;5076178;28;19951;-79
2021/10/09 01:47:25;;;;;;;;;;;;;;;-142.75;100.00;78816.94;5093924;28;21443;-78
2021/10/09 01:49:50;;;;;;;;;;;;;;;-142.75;100.00;78807.09;5075499;28;19920;-79
2021/10/09 01:52:15;;;;;;;;;;;;;;;-142.75;100.00;78803.16;5093638;28;19970;-79
2021/10/09 01:54:41;;;;;;;;;;;;;;;-142.75;100.00;78805.13;5075041;28;20369;-79
2021/10/09 01:57:06;;;;;;;;;;;;;;;-142.75;100.00;78807.09;5093577;28;19916;-79
2021/10/09 01:59:31;;;;;;;;;;;;;;;-142.75;100.00;78807.09;5094128;28;19987;-79
2021/10/09 02:01:57;;;;;;;;;;;;;;;-142.75;100.00;78787.41;5094168;28;19916;-79
2021/10/09 02:04:24;;;;;;;;;;;;;;;-142.75;100.00;78783.47;5093488;28;19916;-79
2021/10/09 02:06:50;;;;;;;;;;;;;;;-142.75;100.00;78773.63;5075693;28;20249;-79
2021/10/09 02:09:17;;;;;;;;;;;;;;;-142.75;100.00;78775.59;5075830;28;19972;-79
2021/10/09 02:11:45;;;;;;;;;;;;;;;-142.75;100.00;78783.47;5075308;28;19920;-79
2021/10/09 02:14:25;;;;;;;;;;;;;;;-142.75;100.00;78791.34;5093267;28;20596;-80
2021/10/09 02:27:20;;;;;;;;;;;;;;;-142.75;100.00;78807.09;5095969;28;20390;-80
2021/10/09 02:29:45;;;;;;;;;;;;;;;-142.75;100.00;78805.13;5098245;28;19919;-81
2021/10/09 02:32:10;;;;;;;;;;;;;;;-142.75;100.00;78809.06;5080096;28;19916;-79
2021/10/09 02:34:36;;;;;;;;;;;;;;;-142.75;100.00;78818.91;5097539;28;20028;-79
2021/10/09 02:37:01;;;;;;;;;;;;;;;-142.75;100.00;78818.91;5097538;28;19923;-79
2021/10/09 02:39:26;;;;;;;;;;;;;;;-142.75;100.00;78801.19;5079612;28;19916;-80
2021/10/09 02:41:52;;;;;;;;;;;;;;;-142.75;100.00;78813.00;5079414;28;19916;-79
2021/10/09 02:44:17;;;;;;;;;;;;;;;-142.75;100.00;78805.13;5098618;28;19920;-80
2021/10/09 02:46:42;;;;;;;;;;;;;;;-142.75;100.00;78811.03;5117595;28;19923;-80
2021/10/09 02:49:08;;;;;;;;;;;;;;;-142.75;100.00;78803.16;5117618;28;19915;-79
2021/10/09 02:51:33;;;;;;;;;;;;;;;-142.75;100.00;78799.22;5099197;28;20308;-80
2021/10/09 02:53:58;;;;;;;;;;;;;;;-142.75;100.00;78795.28;5112157;28;20006;-80
2021/10/09 02:56:23;;;;;;;;;;;;;;;-142.75;100.00;78803.16;5078339;28;19916;-80
2021/10/09 02:58:48;;;;;;;;;;;;;;;-142.75;100.00;78813.00;5096783;28;19916;-81
2021/10/09 03:01:13;;;;;;;;;;;;;;;-142.75;100.00;78811.03;5078390;28;20370;-81
2021/10/09 03:03:39;;;;;;;;;;;;;;;-142.75;100.00;78816.94;5096802;28;19978;-80
2021/10/09 03:06:04;;;;;;;;;;;;;;;-142.75;100.00;78822.88;5078023;28;20436;-80
2021/10/09 03:08:29;;;;;;;;;;;;;;;-142.75;100.00;78822.88;5096802;28;19927;-79
2021/10/09 03:10:54;;;;;;;;;;;;;;;-142.75;100.00;78822.88;5109785;28;19922;-80
2021/10/09 03:13:19;;;;;;;;;;;;;;;-142.75;100.00;78822.88;5098765;28;19923;-80
2021/10/09 03:15:45;;;;;;;;;;;;;;;-142.75;100.00;78828.78;5113785;28;19926;-80
2021/10/09 03:18:10;;;;;;;;;;;;;;;-142.75;100.00;78822.88;5096775;28;20286;-81
2021/10/09 03:20:36;;;;;;;;;;;;;;;-142.75;100.00;78822.88;5101375;28;19920;-82
2021/10/09 03:23:01;;;;;;;;;;;;;;;-142.75;100.00;78816.94;5098626;28;19976;-81
2021/10/09 03:25:27;;;;;;;;;;;;;;;-142.75;100.00;78807.09;5098132;28;19915;-81
2021/10/09 03:27:52;;;;;;;;;;;;;;;-142.75;100.00;78811.03;5116986;28;19919;-82
2021/10/09 03:30:17;;;;;;;;;;;;;;;-142.75;100.00;78803.16;5116265;28;19916;-83
2021/10/09 03:32:42;;;;;;;;;;;;;;;-142.75;100.00;78803.16;5096854;28;19920;-81
2021/10/09 03:35:08;;;;;;;;;;;;;;;-142.75;100.00;78811.03;5078053;28;19962;-81
2021/10/09 03:37:34;;;;;;;;;;;;;;;-142.75;100.00;78811.03;5097326;28;20712;-81
2021/10/09 03:40:02;;;;;;;;;;;;;;;-142.75;100.00;78813.00;5097376;28;19920;-80
2021/10/09 03:42:35;;;;;;;;;;;;;;;-142.75;100.00;78816.94;5101608;28;19916;-81
2021/10/09 03:45:08;;;;;;;;;;;;;;;-142.75;100.00;78824.84;5097583;28;19916;-81
2021/10/09 03:52:22;;;;;;;;;;;;;;;-142.75;100.00;78822.88;5118543;28;19915;-81
2021/10/09 03:52:47;;;;;;;;;;;;;;;-142.75;100.00;78822.88;5118547;28;19920;-82
2021/10/09 03:55:14;;;;;;;;;;;;;;;-142.75;100.00;78814.97;5100861;28;19923;-81
2021/10/09 03:57:40;;;;;;;;;;;;;;;-142.75;100.00;78813.00;5091382;28;19923;-82
2021/10/09 04:00:05;;;;;;;;;;;;;;;-142.75;100.00;78809.06;5099877;28;20152;-82
2021/10/09 04:02:31;;;;;;;;;;;;;;;-142.75;100.00;78793.31;5099408;28;19923;-82
2021/10/09 04:04:56;;;;;;;;;;;;;;;-142.75;100.00;78785.44;5098227;28;19938;-84
2021/10/09 04:07:21;;;;;;;;;;;;;;;-142.75;100.00;78793.31;5094924;28;19928;-82
2021/10/09 04:09:46;;;;;;;;;;;;;;;-142.75;100.00;78801.19;5119621;28;20462;-82
2021/10/09 04:12:12;;;;;;;;;;;;;;;-142.75;100.00;78805.13;5099181;28;20408;-82
2021/10/09 04:14:37;;;;;;;;;;;;;;;-142.75;100.00;78820.88;5081389;28;19964;-82
2021/10/09 04:17:02;;;;;;;;;;;;;;;-142.75;100.00;78822.88;5097787;28;19915;-82
2021/10/09 04:19:27;;;;;;;;;;;;;;;-142.75;100.00;78826.81;5121932;28;19923;-82
2021/10/09 04:21:52;;;;;;;;;;;;;;;-142.75;100.00;78826.81;5122146;28;19920;-82
2021/10/09 04:24:19;;;;;;;;;;;;;;;-142.75;100.00;78836.66;5104374;28;20461;-82
2021/10/09 04:26:44;;;;;;;;;;;;;;;-142.75;100.00;78840.59;5105332;28;19916;-83
2021/10/09 04:29:10;;;;;;;;;;;;;;;-142.75;100.00;78842.56;5125299;28;19936;-82
2021/10/09 04:31:35;;;;;;;;;;;;;;;-142.75;100.00;78842.56;5106613;28;19927;-82
2021/10/09 04:34:00;;;;;;;;;;;;;;;-142.75;100.00;78842.56;5124289;28;19922;-82
2021/10/09 04:36:25;;;;;;;;;;;;;;;-142.75;100.00;78864.22;5108126;28;19927;-83
2021/10/09 04:38:50;;;;;;;;;;;;;;;-142.75;100.00;78862.25;5104218;28;19916;-83
2021/10/09 04:41:16;;;;;;;;;;;;;;;-142.75;100.00;78856.34;5103543;28;20364;-84
2021/10/09 04:43:41;;;;;;;;;;;;;;;-142.75;100.00;78844.53;5102027;28;19941;-82
2021/10/09 04:46:06;;;;;;;;;;;;;;;-142.75;100.00;78848.47;5084555;28;19972;-83
2021/10/09 04:48:31;;;;;;;;;;;;;;;-142.75;100.00;78840.59;5103138;28;19979;-83
2021/10/09 04:50:56;;;;;;;;;;;;;;;-142.75;100.00;78844.53;5097531;28;19916;-82
2021/10/09 04:53:22;;;;;;;;;;;;;;;-142.75;100.00;78850.44;5116941;28;19922;-82
2021/10/09 04:55:47;;;;;;;;;;;;;;;-142.75;100.00;78858.31;5119047;28;19924;-83
2021/10/09 04:58:12;;;;;;;;;;;;;;;-142.75;100.00;78856.34;5099008;22;20406;-80
2021/10/09 05:00:37;;;;;;;;;;;;;;;-142.75;100.00;78852.41;5084970;28;19927;-81
2021/10/09 05:03:02;;;;;;;;;;;;;;;-142.75;100.00;78850.44;5077616;28;20002;-81
2021/10/09 05:05:28;;;;;;;;;;;;;;;-142.75;100.00;78864.22;5083946;28;19923;-81
2021/10/09 05:07:53;;;;;;;;;;;;;;;-142.75;100.00;78864.22;5089181;28;19924;-81
2021/10/09 05:10:18;;;;;;;;;;;;;;;-142.75;100.00;78866.19;5078463;28;19917;-82
2021/10/09 05:12:43;;;;;;;;;;;;;;;-142.75;100.00;78858.31;5086766;28;20374;-82
2021/10/09 05:15:09;;;;;;;;;;;;;;;-142.75;100.00;78850.44;5089872;28;19917;-82
2021/10/09 05:17:34;;;;;;;;;;;;;;;-142.75;100.00;78838.63;5083799;28;19970;-81
2021/10/09 05:20:00;;;;;;;;;;;;;;;-142.75;100.00;78836.66;5076527;28;19948;-81
2021/10/09 05:22:25;;;;;;;;;;;;;;;-142.75;100.00;78854.38;5085117;28;19923;-80
2021/10/09 05:24:53;;;;;;;;;;;;;;;-142.75;100.00;78874.06;5081103;28;19916;-80
2021/10/09 05:27:18;;;;;;;;;;;;;;;-142.75;100.00;78885.88;5093125;28;19927;-81
2021/10/09 05:29:43;;;;;;;;;;;;;;;-142.75;100.00;78897.72;5081330;28;19916;-81
2021/10/09 05:32:09;;;;;;;;;;;;;;;-142.75;100.00;78897.72;5092065;28;20310;-82
2021/10/09 05:34:34;;;;;;;;;;;;;;;-142.75;100.00;78893.78;5085618;28;20062;-81
2021/10/09 05:37:00;;;;;;;;;;;;;;;-142.75;100.00;78895.75;5086856;28;19977;-80
2021/10/09 05:39:25;;;;;;;;;;;;;;;-142.75;100.00;78899.69;5083520;28;19923;-81
2021/10/09 05:41:50;;;;;;;;;;;;;;;-142.75;100.00;78885.88;5082189;28;19916;-81
2021/10/09 05:44:16;;;;;;;;;;;;;;;-142.75;100.00;78860.28;5087873;28;19917;-82
2021/10/09 05:46:41;;;;;;;;;;;;;;;-142.75;100.00;78864.22;5086640;28;20270;-82
2021/10/09 05:49:06;;;;;;;;;;;;;;;-142.75;100.00;78878.00;5078635;28;19923;-81
2021/10/09 05:52:10;;;;;;;;;;;;;;;-142.75;100.00;78889.81;5086309;28;19948;-80
2021/10/09 05:56:55;;;;;;;;;;;;;;;-142.75;100.00;78874.06;5085107;28;19942;-81
2021/10/09 06:00:06;;;;;;;;;;;;;;;-142.75;100.00;78842.56;5074767;28;19944;-81
2021/10/09 06:25:18;;;;;;;;;;;;;;;-142.75;100.00;78838.63;5080597;28;19923;-81
2021/10/09 06:59:31;;;;;;;;;;;;;;;-142.75;100.00;78759.84;5076627;28;19939;-82
2021/10/09 07:01:57;;;;;;;;;;;;;;;-142.75;100.00;78712.56;5085794;28;19962;-82
2021/10/09 07:04:22;;;;;;;;;;;;;;;-142.75;100.00;78704.69;5089952;28;19924;-83
2021/10/09 07:06:49;;;;;;;;;;;;;;;-142.75;100.00;78692.88;5082701;28;19923;-81
2021/10/09 07:09:15;;;;;;;;;;;;;;;-142.75;100.00;78669.25;5082892;28;19924;-80
2021/10/09 07:11:40;;;;;;;;;;;;;;;-142.75;100.00;78657.41;5083574;28;20433;-82
2021/10/09 07:14:07;;;;;;;;;;;;;;;-142.75;100.00;78645.59;5079062;28;19917;-82
2021/10/09 07:16:32;;;;;;;;;;;;;;;-142.75;100.00;78637.72;5073856;28;19916;-82
2021/10/09 07:18:58;;;;;;;;;;;;;;;-142.75;100.00;78627.88;5082887;28;20389;-82
2021/10/09 07:21:23;;;;;;;;;;;;;;;-142.75;100.00;78610.16;5077863;28;19921;-81
2021/10/09 07:23:49;;;;;;;;;;;;;;;-142.75;100.00;78592.44;5090333;28;19923;-81
2021/10/09 07:26:14;;;;;;;;;;;;;;;-142.75;100.00;78568.78;5078195;28;19994;-81
2021/10/09 07:28:39;;;;;;;;;;;;;;;-142.75;100.00;78509.72;5092087;28;19920;-82
2021/10/09 07:31:04;;;;;;;;;;;;;;;-142.75;100.00;78468.34;5089499;28;20365;-81
2021/10/09 07:33:29;;;;;;;;;;;;;;;-142.75;100.00;78409.28;5084007;28;20016;-81
2021/10/09 07:35:55;;;;;;;;;;;;;;;-142.75;100.00;78362.00;5072723;28;19917;-82
2021/10/09 07:38:20;;;;;;;;;;;;;;;-142.75;100.00;78324.59;5090810;28;20576;-82
2021/10/09 07:40:45;;;;;;;;;;;;;;;-142.75;100.00;78326.56;5079464;28;19916;-82
2021/10/09 07:43:11;;;;;;;;;;;;;;;-142.75;100.00;78356.09;5079832;28;19924;-80
2021/10/09 07:45:36;;;;;;;;;;;;;;;-142.75;100.00;78415.19;5081367;28;19922;-81
2021/10/09 07:48:01;;;;;;;;;;;;;;;-142.75;100.00;78432.91;5086367;28;20414;-79
2021/10/09 07:50:26;;;;;;;;;;;;;;;-142.75;100.00;78438.81;5083880;28;19923;-80
2021/10/09 07:52:51;;;;;;;;;;;;;;;-142.75;100.00;78417.16;5088377;28;19916;-79
2021/10/09 07:55:16;;;;;;;;;;;;;;;-142.75;100.00;78334.44;5087215;28;19924;-81
2021/10/09 07:57:42;;;;;;;;;;;;;;;-142.75;100.00;78285.19;5078541;28;19966;-79
2021/10/09 08:00:07;;;;;;;;;;;;;;;-142.75;100.00;78190.69;5085628;28;19923;-80
2021/10/09 08:02:35;;;;;;;;;;;;;;;-142.75;100.00;78123.72;5082737;28;19925;-80
2021/10/09 08:05:00;;;;;;;;;;;;;;;-142.75;100.00;78129.63;5081946;28;19982;-79
2021/10/09 08:07:25;;;;;;;;;;;;;;;-142.75;100.00;78145.38;5084245;28;19920;-78
2021/10/09 08:09:50;;;;;;;;;;;;;;;-142.75;100.00;78139.47;5087309;28;19922;-79
2021/10/09 08:12:15;;;;;;;;;;;;;;;-142.75;97.62;78119.78;5079073;28;20297;-81
2021/10/09 08:14:41;;;;;;;;;;;;;;;-142.75;97.16;78129.63;5085305;28;19920;-79
2021/10/09 08:17:06;;;;;;;;;;;;;;;-142.75;95.34;78082.38;5081702;28;19916;-80
2021/10/09 08:19:31;;;;;;;;;;;;;;;-142.75;95.49;78027.22;5089649;28;19935;-79
2021/10/09 08:22:00;;;;;;;;;;;;;;;-142.75;91.07;77972.09;5083922;28;20006;-79
2021/10/09 08:24:41;;;;;;;;;;;;;;;-142.75;89.85;78019.34;5082928;28;19917;-79
2021/10/09 08:27:44;;;;;;;;;;;;;;;-142.75;88.48;77987.84;5081823;28;19924;-82
2021/10/09 08:40:55;;;;;;;;;;;;;;;-142.75;81.93;77881.50;5080687;28;19927;-80
2021/10/09 08:43:21;;;;;;;;;;;;;;;-142.75;83.60;77889.38;5082626;28;19928;-80
2021/10/09 08:45:46;;;;;;;;;;;;;;;-142.75;81.18;77826.38;5081248;28;20427;-80
2021/10/09 08:48:11;;;;;;;;;;;;;;;-142.75;81.11;77808.66;5088822;28;20377;-80
2021/10/09 08:50:37;;;;;;;;;;;;;;;-142.75;77.18;77666.88;5085022;28;19924;-80
2021/10/09 08:53:08;;;;;;;;;;;;;;;-142.75;73.65;77662.94;5086786;28;19923;-81
2021/10/09 08:55:35;;;;;;;;;;;;;;;-142.75;75.12;77749.59;5079039;28;19920;-81
2021/10/09 08:58:03;;;;;;;;;;;;;;;-142.75;75.61;77692.47;5084263;28;19916;-80
2021/10/09 09:00:57;;;;;;;;;;;;;;;-142.75;74.83;77696.41;5081455;28;19920;-80
2021/10/09 09:03:31;;;;;;;;;;;;;;;-142.75;73.01;77710.19;5085113;28;19923;-80
2021/10/09 09:06:21;;;;;;;;;;;;;;;-142.75;74.79;77708.22;5079995;28;19916;-80
2021/10/09 09:25:54;;;;;;;;;;;;;;;-142.75;72.88;77515.28;5078747;28;19931;-82
2021/10/09 09:39:12;;;;;;;;;;;;;;;-142.75;60.88;77336.09;5076012;28;19916;-80
2021/10/09 09:41:48;;;;;;;;;;;;;;;-142.75;62.61;77340.03;5076963;28;19948;-81
2021/10/09 09:44:14;;;;;;;;;;;;;;;-142.75;63.82;77420.75;5078630;28;19943;-80
2021/10/09 09:46:39;;;;;;;;;;;;;;;-142.75;62.58;77367.59;5084771;28;19953;-80
2021/10/09 09:49:05;;;;;;;;;;;;;;;-142.75;62.02;77338.06;5082521;28;20011;-82
2021/10/09 09:51:34;;;;;;;;;;;;;;;-142.75;63.26;77324.28;5082556;28;20355;-81
2021/10/09 09:54:00;;;;;;;;;;;;;;;-142.75;63.38;77300.66;5073817;28;19916;-81
2021/10/09 09:56:26;;;;;;;;;;;;;;;-142.75;64.35;77367.59;5084781;28;19916;-81
2021/10/09 09:58:52;;;;;;;;;;;;;;;-142.75;62.23;77393.19;5077005;28;19963;-80
2021/10/09 10:01:18;;;;;;;;;;;;;;;-142.75;64.60;77444.38;5077950;28;19916;-80
2021/10/09 10:03:46;;;;;;;;;;;;;;;-142.75;65.46;77365.63;5081685;28;19928;-81
2021/10/09 10:06:12;;;;;;;;;;;;;;;-142.75;64.04;77336.09;5082298;28;19920;-79
2021/10/09 10:08:41;;;;;;;;;;;;;;;-142.75;64.91;77160.88;5074348;28;21366;-81
2021/10/09 10:11:07;;;;;;;;;;;;;;;-142.75;60.28;77068.34;5076927;28;19924;-82
2021/10/09 10:13:32;;;;;;;;;;;;;;;-142.75;57.69;77131.34;5079857;28;19918;-80
2021/10/09 10:16:03;;;;;;;;;;;;;;;-142.75;59.00;77135.28;5076372;28;19916;-79
2021/10/09 10:18:48;;;;;;;;;;;;;;;-142.75;61.18;77117.56;5069968;28;19920;-78
2021/10/09 10:21:14;;;;;;;;;;;;;;;-142.75;55.81;77097.88;5081950;28;20016;-79
2021/10/09 10:23:41;;;;;;;;;;;;;;;-142.75;59.16;77247.50;5083776;28;20445;-80
2021/10/09 10:26:18;;;;;;;;;;;;;;;-142.75;59.78;77273.09;5084444;28;19925;-79
2021/10/09 10:28:43;;;;;;;;;;;;;;;-142.75;61.38;77342.00;5080998;28;19924;-81
2021/10/09 10:31:09;;;;;;;;;;;;;;;-142.75;62.13;77355.78;5086131;28;20000;-80
2021/10/09 10:33:39;;;;;;;;;;;;;;;-142.75;63.11;77310.50;5086381;28;19952;-83
2021/10/09 10:36:04;;;;;;;;;;;;;;;-142.75;61.71;77361.69;5080424;28;19974;-80
2021/10/09 10:38:34;;;;;;;;;;;;;;;-142.75;64.23;77456.22;5082079;28;19916;-80
2021/10/09 10:41:02;;;;;;;;;;;;;;;-142.75;62.52;77371.53;5081708;28;19917;-79
2021/10/09 10:43:53;;;;;;;;;;;;;;;-142.75;64.17;77312.47;5080212;28;19916;-79
2021/10/09 10:46:22;;;;;;;;;;;;;;;-142.75;61.43;77275.06;5081704;28;19916;-79
2021/10/09 10:56:55;;;;;;;;;;;;;;;-142.75;61.90;77408.94;5105137;22;19939;-83
2021/10/09 10:59:33;;;;;;;;;;;;;;;-142.75;63.21;77464.09;5097433;28;19928;-82
2021/10/09 11:02:08;;;;;;;;;;;;;;;-142.75;65.76;77519.22;5117860;28;19968;-81
2021/10/09 11:04:37;;;;;;;;;;;;;;;-142.75;65.82;77468.03;5118518;28;19923;-80
2021/10/09 11:07:03;;;;;;;;;;;;;;;-142.75;64.93;77401.06;5096237;28;19915;-80
2021/10/09 11:09:28;;;;;;;;;;;;;;;-142.75;64.03;77477.88;5106043;28;19923;-80
2021/10/09 11:11:53;;;;;;;;;;;;;;;-142.75;66.04;77485.75;5103875;28;20301;-81
2021/10/09 11:14:22;;;;;;;;;;;;;;;-142.75;69.23;77662.94;5109938;28;19916;-81
2021/10/09 11:16:47;;;;;;;;;;;;;;;-142.75;71.31;77660.97;5108036;28;19935;-83
2021/10/09 11:19:13;;;;;;;;;;;;;;;-142.75;70.64;77550.72;5108413;28;19916;-81
2021/10/09 11:21:54;;;;;;;;;;;;;;;-142.75;67.80;77544.81;5103611;28;19915;-81
2021/10/09 11:24:19;;;;;;;;;;;;;;;-142.75;67.53;77542.84;5104965;28;20304;-81
2021/10/09 11:26:53;;;;;;;;;;;;;;;-142.75;66.91;77471.97;5087931;28;19919;-81
2021/10/09 11:29:19;;;;;;;;;;;;;;;-142.75;64.78;77444.38;5087839;28;20348;-81
2021/10/09 11:31:44;;;;;;;;;;;;;;;-142.75;65.80;77470.00;5104170;28;19922;-83
2021/10/09 11:34:09;;;;;;;;;;;;;;;-142.75;66.29;77505.44;5085654;28;19923;-81
2021/10/09 11:36:38;;;;;;;;;;;;;;;-142.75;69.88;77570.41;5112221;28;19968;-80
2021/10/09 11:39:13;;;;;;;;;;;;;;;-142.75;73.13;77694.44;5091119;28;20029;-80
2021/10/09 11:41:40;;;;;;;;;;;;;;;-142.75;77.66;77771.25;5099978;28;20388;-79
2021/10/09 11:44:24;;;;;;;;;;;;;;;-142.75;78.17;77802.75;5107159;28;19968;-79
2021/10/09 11:55:34;;;;;;;;;;;;;;;-142.75;74.91;77804.72;5106086;28;20004;-81
2021/10/09 11:58:01;;;;;;;;;;;;;;;-142.75;75.62;77820.47;5090693;28;19939;-80
2021/10/09 12:00:27;;;;;;;;;;;;;;;-142.75;80.26;77814.56;5083068;28;20039;-78
2021/10/09 12:02:52;;;;;;;;;;;;;;;-142.75;82.57;77765.34;5089555;28;19951;-80
2021/10/09 12:05:17;;;;;;;;;;;;;;;-142.75;79.90;77790.94;5086723;28;19920;-78
2021/10/09 12:07:42;;;;;;;;;;;;;;;-142.75;82.28;77822.44;5102766;28;19920;-79
2021/10/09 12:10:19;;;;;;;;;;;;;;;-142.75;82.83;77859.84;5103159;28;20431;-79
2021/10/09 12:13:02;;;;;;;;;;;;;;;-142.75;83.60;77834.25;5086796;28;19924;-79
2021/10/09 12:15:27;;;;;;;;;;;;;;;-142.75;83.62;77867.72;5104684;28;20124;-78
2021/10/09 12:17:58;;;;;;;;;;;;;;;-142.75;82.27;77873.63;5106633;28;19943;-79
2021/10/09 12:20:26;;;;;;;;;;;;;;;-142.75;82.18;77853.94;5082489;28;19923;-79
2021/10/09 12:22:55;;;;;;;;;;;;;;;-142.75;84.57;77808.66;5107254;28;19985;-77
2021/10/09 12:25:26;;;;;;;;;;;;;;;-142.75;84.35;77810.63;5105185;28;19959;-79
2021/10/09 12:27:55;;;;;;;;;;;;;;;-142.75;84.27;77814.56;5086285;28;20452;-79
2021/10/09 12:30:21;;;;;;;;;;;;;;;-142.75;84.57;77810.63;5108744;28;19920;-80
2021/10/09 12:32:47;;;;;;;;;;;;;;;-142.75;84.80;77822.44;5089979;28;19920;-79
2021/10/09 12:35:16;;;;;;;;;;;;;;;-142.75;85.54;77834.25;5105404;28;20416;-78
2021/10/09 12:38:00;;;;;;;;;;;;;;;-142.75;86.61;77844.09;5108167;28;19938;-80
2021/10/09 12:40:26;;;;;;;;;;;;;;;-142.75;87.31;77779.13;5082310;28;19952;-79
2021/10/09 12:42:54;;;;;;;;;;;;;;;-142.75;84.19;77812.59;5106614;28;19972;-79
2021/10/09 12:45:21;;;;;;;;;;;;;;;-142.75;83.70;77830.31;5097069;28;19926;-78
2021/10/09 12:47:46;;;;;;;;;;;;;;;-142.75;82.86;77810.63;5099300;28;20328;-77
2021/10/09 12:50:11;;;;;;;;;;;;;;;-142.75;84.23;77830.31;5089735;28;19920;-78
2021/10/09 12:52:37;;;;;;;;;;;;;;;-142.75;84.58;77816.53;5108032;28;19915;-78
2021/10/09 12:55:03;;;;;;;;;;;;;;;-142.75;84.05;77783.06;5104727;28;19928;-79
2021/10/09 12:57:29;;;;;;;;;;;;;;;-142.75;81.81;77749.59;5101775;28;19981;-79
2021/10/09 12:59:54;;;;;;;;;;;;;;;-142.75;80.94;77794.88;5102751;28;19919;-78
2021/10/09 13:02:19;;;;;;;;;;;;;;;-142.75;83.31;77818.50;5107583;28;19922;-77
2021/10/09 13:04:44;;;;;;;;;;;;;;;-142.75;81.66;77818.50;5103822;28;19932;-78
2021/10/09 13:07:10;;;;;;;;;;;;;;;-142.75;81.05;77826.38;5103885;28;19919;-79
2021/10/09 13:09:35;;;;;;;;;;;;;;;-142.75;82.81;77838.19;5089842;28;19924;-78
2021/10/09 13:12:02;;;;;;;;;;;;;;;-142.75;82.33;77848.03;5088259;28;19923;-78
2021/10/09 13:14:27;;;;;;;;;;;;;;;-142.75;83.37;77814.56;5105860;28;19968;-78
2021/10/09 13:16:52;;;;;;;;;;;;;;;-142.75;82.53;77802.75;5082986;28;20011;-78
2021/10/09 13:19:18;;;;;;;;;;;;;;;-142.75;82.01;77783.06;5105079;28;19915;-78
2021/10/09 13:21:43;;;;;;;;;;;;;;;-142.75;82.46;77767.31;5101074;28;19920;-77
2021/10/09 13:24:08;;;;;;;;;;;;;;;-142.75;84.03;77745.66;5100507;28;19938;-78
2021/10/09 13:26:34;;;;;;;;;;;;;;;-142.75;82.61;77771.25;5084931;28;19923;-77
2021/10/09 13:29:00;;;;;;;;;;;;;;;-142.75;82.89;77751.56;5100455;28;20494;-79
2021/10/09 13:31:25;;;;;;;;;;;;;;;-142.75;81.99;77729.88;5085303;28;19924;-78
2021/10/09 13:33:52;;;;;;;;;;;;;;;-142.75;81.05;77755.50;5104868;28;20435;-77
2021/10/09 13:36:17;;;;;;;;;;;;;;;-142.75;82.93;77747.63;5102781;28;19938;-77
2021/10/09 13:38:44;;;;;;;;;;;;;;;-142.75;81.56;77751.56;5109962;28;20421;-76
2021/10/09 13:41:10;;;;;;;;;;;;;;;-142.75;79.66;77787.00;5104916;28;19916;-78
2021/10/09 13:43:35;;;;;;;;;;;;;;;-142.75;80.95;77779.13;5099689;28;19916;-78
2021/10/09 13:46:00;;;;;;;;;;;;;;;-142.75;78.88;77826.38;5098996;28;19939;-78
2021/10/09 13:48:26;;;;;;;;;;;;;;;-142.75;80.54;77814.56;5082587;28;19920;-79
2021/10/09 13:50:53;;;;;;;;;;;;;;;-142.75;80.31;77816.53;5084374;28;20599;-77
2021/10/09 13:53:19;;;;;;;;;;;;;;;-142.75;79.17;77816.53;5108503;28;20010;-76
2021/10/09 13:55:45;;;;;;;;;;;;;;;-142.75;82.08;77812.59;5107986;28;20477;-77
2021/10/09 13:58:10;;;;;;;;;;;;;;;-142.75;82.44;77810.63;5105976;28;19943;-77
2021/10/09 14:00:36;;;;;;;;;;;;;;;-142.75;80.60;77808.66;5099372;28;19926;-78
2021/10/09 14:03:02;;;;;;;;;;;;;;;-142.75;80.47;77806.69;5101723;28;19980;-77
2021/10/09 14:05:28;;;;;;;;;;;;;;;-142.75;80.93;77802.75;5097313;28;19923;-78
2021/10/09 14:07:53;;;;;;;;;;;;;;;-142.75;82.17;77790.94;5089242;28;19926;-77
2021/10/09 14:10:19;;;;;;;;;;;;;;;-142.75;81.58;77787.00;5073843;28;20010;-77
2021/10/09 14:12:45;;;;;;;;;;;;;;;-142.75;80.28;77804.72;5079649;28;19916;-76
2021/10/09 14:15:11;;;;;;;;;;;;;;;-142.75;80.60;77802.75;5077209;28;20361;-77
2021/10/09 14:17:36;;;;;;;;;;;;;;;-142.75;83.98;77788.97;5092822;28;19923;-77
2021/10/09 14:20:02;;;;;;;;;;;;;;;-142.75;81.17;77783.06;5083031;28;19919;-76
2021/10/09 14:22:29;;;;;;;;;;;;;;;-142.75;81.54;77798.81;5075145;28;19965;-77
2021/10/09 14:24:54;;;;;;;;;;;;;;;-142.75;80.92;77781.09;5078679;28;19922;-78